Skip Navigation Links
NOAA logo - Click to go to the NOAA homepage
NOAA's National Weather Service
Alaska Aviation Weather Unit
  NWS logo - Click to go to the NWS homepage
Left Navbar Graphic     03 AKDT = 11 GMT

   
NOAA is celebrating 200 years of science, service, and stewardship. Visit the NOAA 200th celebration Web site to learn more.
USA.gov is the U.S. Government's official Web portal to all Federal, state and local government Web resources and services.
Facebook
NWS on Facebook

AAWU Home :: Display TAF Add Bookmark
TAF PAHN 290915Z 2909/3006 VRB04KT 5SM -SHRA BR BKN014 OVC025
     FM291000 08010KT P6SM -SHRA OVC030
      TEMPO 2913/2917 3SM -SHSNRA OVC015
     FM291700 11010G16KT P6SM -SHRA OVC015
      AMD LTD TO CLD VIS AND WIND=

METAR PAHN 290554Z AUTO 07004KT 10SM OVC070 03/01 A2978 RMK AO2 SLP086 T00280011 10072 20022 53004 TSNO= METAR PAHN 290654Z AUTO 10004KT 10SM BKN050 BKN075 OVC095 03/01 A2978 RMK AO2 SLP085 T00280011 TSNO= SPECI PAHN 290752Z AUTO 11005KT 5SM -RA BR BKN019 OVC031 03/02 A2978 RMK AO2 UPB34E41RAB41 P0001 TSNO= METAR PAHN 290754Z AUTO 10004KT 5SM -RA BR BKN019 OVC031 03/02 A2978 RMK AO2 UPB34E41RAB41 SLP086 P0001 T00280017 TSNO= METAR PAHN 290854Z AUTO 06006KT 5SM -RA BR BKN016 OVC026 04/02 A2977 RMK AO2 SLP084 P0004 60005 T00390022 400720022 58001 TSNO= METAR PAHN 290954Z AUTO 10005KT 6SM -RA BR FEW014 OVC022 03/02 A2977 RMK AO2 SLP082 P0002 T00280017 TSNO= METAR PAHN 291054Z AUTO 07007KT 6SM -RA BR SCT020 BKN026 OVC034 04/02 A2975 RMK AO2 SLP078 P0003 T00390022 TSNO=
 Alaska TAF Map

NOAA's National Weather Service
Alaska Aviation Weather Unit
6930 Sand Lake Road
Anchorage, AK 99502-1845
Disclaimer
Credits
Glossary
Privacy Policy
About Us
Career Opportunities
Contact AAWU Internet Services Site last modified: April, 17th 2012